Time;durP1;ratioP1;P1;durP2;ratioP2;P2;SDS_P1;SDS_P2;PMS_P1;PMS_P2;Temp;Humidity;BMP_temperature;BMP_pressure;BME280_temperature;BME280_humidity;BME280_pressure;Samples;Min_cycle;Max_cycle;Signal;HPM_P1;HPM_P2
2023/05/31 00:01:17;;;;;;;10.15;4.68;;;;;;;;;;4897295;29;20091;-95
2023/05/31 00:04:02;;;;;;;8.65;4.20;;;;;;;;;;4923458;29;20042;-95
2023/05/31 00:06:47;;;;;;;10.02;4.15;;;;;;;;;;4923110;29;20090;-94
2023/05/31 00:09:32;;;;;;;13.68;4.60;;;;;;;;;;4937300;29;20054;-94
2023/05/31 00:12:16;;;;;;;12.18;4.82;;;;;;;;;;4936692;29;20098;-94
2023/05/31 00:15:01;;;;;;;11.25;4.47;;;;;;;;;;4909996;29;20047;-94
2023/05/31 00:17:45;;;;;;;10.23;5.03;;;;;;;;;;4926052;29;20118;-94
2023/05/31 00:20:30;;;;;;;10.23;4.85;;;;;;;;;;4922936;29;20103;-94
2023/05/31 00:23:14;;;;;;;11.85;4.43;;;;;;;;;;4908364;29;20131;-93
2023/05/31 00:25:59;;;;;;;11.10;5.05;;;;;;;;;;4937116;29;20416;-93
2023/05/31 00:28:43;;;;;;;8.88;4.22;;;;;;;;;;4912154;29;20253;-94
2023/05/31 00:31:28;;;;;;;8.60;4.88;;;;;;;;;;4909420;29;20118;-93
2023/05/31 00:34:13;;;;;;;11.38;5.47;;;;;;;;;;4922814;29;20063;-93
2023/05/31 00:36:57;;;;;;;11.77;4.88;;;;;;;;;;4937802;29;20123;-94
2023/05/31 00:39:42;;;;;;;10.00;4.93;;;;;;;;;;4937164;29;20103;-93
2023/05/31 00:42:26;;;;;;;10.05;5.20;;;;;;;;;;4922504;29;20043;-94
2023/05/31 00:45:14;;;;;;;9.63;5.45;;;;;;;;;;4922883;29;20046;-93
2023/05/31 00:48:00;;;;;;;9.10;5.07;;;;;;;;;;4937573;29;20604;-94
2023/05/31 00:50:45;;;;;;;11.20;5.22;;;;;;;;;;4923114;29;20130;-94
2023/05/31 00:53:29;;;;;;;8.27;4.85;;;;;;;;;;4922771;29;20087;-93
2023/05/31 00:56:14;;;;;;;10.35;5.78;;;;;;;;;;4936617;29;20435;-94
2023/05/31 00:58:59;;;;;;;11.10;5.10;;;;;;;;;;4936967;29;20052;-94
2023/05/31 01:01:45;;;;;;;10.35;5.07;;;;;;;;;;4937245;29;20087;-94
2023/05/31 01:04:30;;;;;;;9.40;5.10;;;;;;;;;;4921155;29;20046;-93
2023/05/31 01:07:15;;;;;;;10.60;5.90;;;;;;;;;;4956127;29;20695;-95
2023/05/31 01:10:00;;;;;;;13.10;6.00;;;;;;;;;;4943503;29;20039;-93
2023/05/31 01:12:56;;;;;;;12.82;5.68;;;;;;;;;;4958409;29;20092;-93
2023/05/31 01:15:47;;;;;;;10.60;5.57;;;;;;;;;;4957441;29;20064;-93
2023/05/31 01:18:36;;;;;;;14.25;5.53;;;;;;;;;;4939483;29;20068;-94
2023/05/31 01:21:26;;;;;;;11.88;5.55;;;;;;;;;;4945751;29;20098;-94
2023/05/31 01:24:26;;;;;;;11.10;5.40;;;;;;;;;;4937818;29;20042;-94
2023/05/31 01:27:11;;;;;;;11.00;4.97;;;;;;;;;;4935656;29;20494;-94
2023/05/31 01:29:56;;;;;;;10.13;5.03;;;;;;;;;;4908854;29;20396;-93
2023/05/31 01:32:41;;;;;;;12.80;5.10;;;;;;;;;;4949386;29;20095;-95
2023/05/31 01:35:25;;;;;;;10.38;5.70;;;;;;;;;;4936107;29;20042;-93
2023/05/31 01:38:10;;;;;;;13.48;5.05;;;;;;;;;;4943875;29;20058;-95
2023/05/31 01:40:56;;;;;;;10.85;6.20;;;;;;;;;;4940984;28;20051;-95
2023/05/31 01:43:42;;;;;;;11.70;5.70;;;;;;;;;;4940598;29;20038;-94
2023/05/31 01:46:27;;;;;;;11.07;5.50;;;;;;;;;;4940055;28;20073;-94
2023/05/31 01:49:12;;;;;;;13.73;5.80;;;;;;;;;;4954972;28;20074;-94
2023/05/31 01:51:57;;;;;;;12.90;5.80;;;;;;;;;;4955033;28;20098;-94
2023/05/31 01:54:42;;;;;;;11.45;5.80;;;;;;;;;;4955866;28;20042;-94
2023/05/31 01:57:28;;;;;;;12.65;6.15;;;;;;;;;;4954827;28;20090;-94
2023/05/31 02:00:14;;;;;;;12.45;5.78;;;;;;;;;;4953992;29;20122;-93
2023/05/31 02:02:59;;;;;;;10.40;5.22;;;;;;;;;;4954795;29;20174;-94
2023/05/31 02:05:59;;;;;;;12.85;6.28;;;;;;;;;;4940337;29;20515;-93
2023/05/31 02:08:44;;;;;;;12.02;5.70;;;;;;;;;;4954635;29;20098;-95
2023/05/31 02:11:29;;;;;;;11.45;5.20;;;;;;;;;;4940213;29;20552;-94
2023/05/31 02:14:14;;;;;;;12.95;5.95;;;;;;;;;;4927319;29;20058;-94
2023/05/31 02:16:58;;;;;;;11.13;5.82;;;;;;;;;;4922628;28;20039;-94
2023/05/31 02:19:46;;;;;;;9.60;4.85;;;;;;;;;;4940148;29;20090;-94
2023/05/31 02:22:31;;;;;;;10.13;5.18;;;;;;;;;;4913734;29;20054;-94
2023/05/31 02:25:15;;;;;;;12.85;5.95;;;;;;;;;;4941008;29;20147;-94
2023/05/31 02:28:00;;;;;;;11.25;5.28;;;;;;;;;;4943364;29;20054;-94
2023/05/31 02:30:54;;;;;;;12.63;5.00;;;;;;;;;;4940053;28;20142;-94
2023/05/31 02:33:39;;;;;;;;;;;;;;;;;;4941219;29;20042;-94
2023/05/31 02:36:25;;;;;;;;;;;;;;;;;;4943078;29;19932;-92
2023/05/31 02:39:09;;;;;;;11.02;5.35;;;;;;;;;;4954417;29;19965;-94
2023/05/31 02:41:54;;;;;;;12.40;5.45;;;;;;;;;;4927270;29;20050;-94
2023/05/31 02:44:39;;;;;;;12.52;6.10;;;;;;;;;;4927411;28;20065;-94
2023/05/31 02:47:23;;;;;;;13.80;5.50;;;;;;;;;;4958801;29;20078;-94
2023/05/31 02:50:09;;;;;;;12.38;5.35;;;;;;;;;;4943807;29;20074;-94
2023/05/31 02:52:54;;;;;;;9.98;4.97;;;;;;;;;;4957583;29;20038;-94
2023/05/31 02:55:39;;;;;;;14.95;5.63;;;;;;;;;;4943984;29;20082;-94
2023/05/31 02:58:23;;;;;;;11.93;5.10;;;;;;;;;;4943968;29;20059;-94
2023/05/31 03:01:08;;;;;;;14.48;6.57;;;;;;;;;;4931936;29;20117;-94
2023/05/31 03:03:53;;;;;;;12.50;5.68;;;;;;;;;;4931062;29;20050;-94
2023/05/31 03:06:39;;;;;;;13.30;6.40;;;;;;;;;;4957929;29;20499;-93
2023/05/31 03:09:24;;;;;;;11.75;6.13;;;;;;;;;;4958142;28;20512;-93
2023/05/31 03:12:09;;;;;;;15.40;5.78;;;;;;;;;;4958455;28;20407;-95
2023/05/31 03:14:54;;;;;;;17.42;6.38;;;;;;;;;;4931207;29;20661;-95
2023/05/31 03:17:39;;;;;;;15.80;6.85;;;;;;;;;;4943222;28;20074;-95
2023/05/31 03:20:23;;;;;;;15.48;5.78;;;;;;;;;;4943712;29;20041;-94
2023/05/31 03:23:08;;;;;;;14.40;6.47;;;;;;;;;;4949364;28;20034;-94
2023/05/31 03:25:53;;;;;;;15.48;7.10;;;;;;;;;;4948828;29;20046;-94
2023/05/31 03:28:37;;;;;;;15.32;6.45;;;;;;;;;;4943151;29;20444;-94
2023/05/31 03:31:22;;;;;;;14.98;6.60;;;;;;;;;;4929375;28;20042;-94
2023/05/31 03:34:06;;;;;;;19.02;7.80;;;;;;;;;;4942875;29;20129;-93
2023/05/31 03:36:51;;;;;;;15.05;6.18;;;;;;;;;;4943867;29;20400;-94
2023/05/31 03:39:35;;;;;;;19.10;8.55;;;;;;;;;;4942675;29;20411;-94
2023/05/31 03:42:20;;;;;;;14.52;7.18;;;;;;;;;;4943816;29;20081;-94
2023/05/31 03:45:05;;;;;;;18.88;7.63;;;;;;;;;;4929643;28;20054;-93
2023/05/31 03:47:49;;;;;;;15.60;7.53;;;;;;;;;;4923755;29;20527;-94
2023/05/31 03:50:34;;;;;;;19.33;8.18;;;;;;;;;;4944859;29;20412;-94
2023/05/31 03:53:19;;;;;;;20.60;8.70;;;;;;;;;;4943512;28;20550;-94
2023/05/31 03:56:03;;;;;;;19.13;8.75;;;;;;;;;;4942394;28;20152;-94
2023/05/31 03:58:48;;;;;;;19.20;8.05;;;;;;;;;;4928157;29;20034;-94
2023/05/31 04:01:33;;;;;;;15.18;7.57;;;;;;;;;;4942999;29;20067;-93
2023/05/31 04:04:18;;;;;;;19.83;7.90;;;;;;;;;;4944937;29;20050;-94
2023/05/31 04:07:02;;;;;;;13.45;7.22;;;;;;;;;;4942623;29;20078;-94
2023/05/31 04:09:46;;;;;;;14.80;6.88;;;;;;;;;;4942116;29;20452;-93
2023/05/31 04:12:31;;;;;;;19.90;7.80;;;;;;;;;;4929202;28;20046;-93
2023/05/31 04:15:16;;;;;;;19.90;7.68;;;;;;;;;;4942781;29;20098;-93
2023/05/31 04:18:03;;;;;;;20.42;9.05;;;;;;;;;;4945502;29;20077;-95
2023/05/31 04:20:48;;;;;;;24.48;8.30;;;;;;;;;;4942914;29;20046;-95
2023/05/31 04:23:32;;;;;;;17.33;9.07;;;;;;;;;;4956600;29;20054;-93
2023/05/31 04:26:17;;;;;;;26.23;9.20;;;;;;;;;;4956734;29;20050;-93
2023/05/31 04:29:02;;;;;;;24.90;9.20;;;;;;;;;;4956477;29;20050;-94
2023/05/31 04:31:47;;;;;;;23.08;10.35;;;;;;;;;;4941978;29;20073;-93
2023/05/31 04:34:31;;;;;;;21.95;8.25;;;;;;;;;;4933347;29;20078;-93
2023/05/31 04:37:15;;;;;;;26.30;9.80;;;;;;;;;;4926919;29;20106;-94
2023/05/31 04:40:00;;;;;;;26.83;9.48;;;;;;;;;;4956205;29;20195;-94
2023/05/31 04:42:45;;;;;;;25.08;10.90;;;;;;;;;;4957912;28;20517;-94
2023/05/31 04:45:32;;;;;;;26.88;9.88;;;;;;;;;;4960899;28;20104;-95
2023/05/31 04:48:20;;;;;;;24.92;9.95;;;;;;;;;;4942383;29;20120;-94
2023/05/31 04:51:04;;;;;;;30.55;11.50;;;;;;;;;;4923346;29;20066;-94
2023/05/31 04:53:49;;;;;;;24.92;10.05;;;;;;;;;;4941409;29;20086;-94
2023/05/31 04:56:34;;;;;;;24.75;9.90;;;;;;;;;;4961297;28;20546;-95
2023/05/31 04:59:18;;;;;;;22.55;7.97;;;;;;;;;;4948568;29;20043;-94
2023/05/31 05:02:03;;;;;;;21.42;9.57;;;;;;;;;;4955667;29;20047;-95
2023/05/31 05:04:48;;;;;;;20.30;10.15;;;;;;;;;;4940547;29;20054;-95
2023/05/31 05:07:35;;;;;;;19.20;8.85;;;;;;;;;;4955070;28;20077;-94
2023/05/31 05:10:22;;;;;;;22.42;9.05;;;;;;;;;;4955253;29;20127;-94
2023/05/31 05:13:07;;;;;;;22.70;8.27;;;;;;;;;;4965244;28;20070;-93
2023/05/31 05:15:52;;;;;;;25.55;9.07;;;;;;;;;;4943442;28;20042;-95
2023/05/31 05:18:37;;;;;;;21.90;8.68;;;;;;;;;;4943632;28;20049;-93
2023/05/31 05:21:21;;;;;;;23.38;8.55;;;;;;;;;;4912850;29;20047;-94
2023/05/31 05:24:06;;;;;;;20.25;9.27;;;;;;;;;;4943013;28;20046;-95
2023/05/31 05:26:51;;;;;;;20.13;8.35;;;;;;;;;;4948108;29;20132;-93
2023/05/31 05:29:35;;;;;;;27.70;9.48;;;;;;;;;;4927021;29;20523;-93
2023/05/31 05:32:20;;;;;;;20.60;9.30;;;;;;;;;;4943310;29;20075;-90
2023/05/31 05:35:04;;;;;;;25.70;9.25;;;;;;;;;;4921750;29;20055;-93
2023/05/31 05:37:49;;;;;;;24.88;9.23;;;;;;;;;;4951503;29;20038;-94
2023/05/31 05:40:34;;;;;;;26.33;9.38;;;;;;;;;;4955138;28;20097;-94
2023/05/31 05:43:18;;;;;;;31.10;9.35;;;;;;;;;;4914819;29;20046;-93
2023/05/31 05:46:03;;;;;;;19.02;8.00;;;;;;;;;;4940191;28;20094;-92
2023/05/31 05:48:48;;;;;;;19.80;8.48;;;;;;;;;;4945837;28;20544;-94
2023/05/31 05:51:32;;;;;;;17.95;8.60;;;;;;;;;;4953891;28;20083;-92
2023/05/31 05:54:17;;;;;;;18.55;7.82;;;;;;;;;;4949256;29;20409;-93
2023/05/31 05:57:04;;;;;;;19.77;9.63;;;;;;;;;;4935197;29;20043;-93
2023/05/31 05:59:49;;;;;;;22.58;8.82;;;;;;;;;;4954404;29;20046;-94
2023/05/31 06:02:33;;;;;;;16.88;7.65;;;;;;;;;;4961553;28;20070;-93
2023/05/31 06:05:25;;;;;;;12.82;6.80;;;;;;;;;;4958762;28;20086;-95
2023/05/31 06:08:10;;;;;;;17.63;7.82;;;;;;;;;;4927167;29;20697;-90
2023/05/31 06:10:55;;;;;;;16.92;7.28;;;;;;;;;;4953164;29;20499;-93
2023/05/31 06:13:39;;;;;;;14.38;6.88;;;;;;;;;;4955760;28;20126;-94
2023/05/31 06:16:24;;;;;;;16.27;6.32;;;;;;;;;;4945600;28;20105;-92
2023/05/31 06:19:09;;;;;;;16.95;6.32;;;;;;;;;;4954938;28;20645;-94
2023/05/31 06:21:57;;;;;;;12.23;5.68;;;;;;;;;;4940324;29;20041;-92
2023/05/31 06:24:42;;;;;;;13.85;6.20;;;;;;;;;;4959694;28;20550;-93
2023/05/31 06:27:27;;;;;;;16.25;6.50;;;;;;;;;;4962103;28;20049;-95
2023/05/31 06:30:12;;;;;;;12.30;5.63;;;;;;;;;;4928577;29;20062;-93
2023/05/31 06:32:57;;;;;;;12.23;5.78;;;;;;;;;;4953649;29;20046;-95
2023/05/31 06:35:42;;;;;;;13.20;6.60;;;;;;;;;;4947551;29;20074;-94
2023/05/31 06:38:27;;;;;;;14.50;5.55;;;;;;;;;;4952306;29;20086;-93
2023/05/31 06:41:11;;;;;;;15.90;7.07;;;;;;;;;;4940993;28;20071;-92
2023/05/31 06:43:56;;;;;;;10.15;5.30;;;;;;;;;;4928316;29;20046;-92
2023/05/31 06:46:40;;;;;;;16.15;5.18;;;;;;;;;;4931877;28;20045;-94
2023/05/31 06:49:25;;;;;;;12.68;5.70;;;;;;;;;;4931812;28;20049;-94
2023/05/31 06:52:11;;;;;;;13.63;5.53;;;;;;;;;;4941104;29;20053;-93
2023/05/31 06:54:56;;;;;;;11.80;5.05;;;;;;;;;;4944258;29;20404;-94
2023/05/31 06:57:40;;;;;;;13.30;4.95;;;;;;;;;;4947063;29;20043;-93
2023/05/31 07:00:25;;;;;;;13.63;4.88;;;;;;;;;;4937441;29;20069;-91
2023/05/31 07:03:12;;;;;;;15.93;5.78;;;;;;;;;;4953813;28;20047;-93
2023/05/31 07:05:57;;;;;;;12.02;4.90;;;;;;;;;;4926654;29;20110;-93
2023/05/31 07:08:41;;;;;;;13.00;4.75;;;;;;;;;;4954169;28;20047;-92
2023/05/31 07:11:26;;;;;;;11.70;5.00;;;;;;;;;;4939837;29;20053;-94
2023/05/31 07:14:10;;;;;;;11.20;4.50;;;;;;;;;;4939433;29;20033;-93
2023/05/31 07:16:55;;;;;;;9.80;5.13;;;;;;;;;;4939585;29;20167;-92
2023/05/31 07:19:46;;;;;;;15.55;4.88;;;;;;;;;;4935255;28;20476;-93
2023/05/31 07:22:31;;;;;;;11.52;4.25;;;;;;;;;;4928726;28;20062;-93
2023/05/31 07:25:16;;;;;;;9.27;4.50;;;;;;;;;;4925714;29;20047;-92
2023/05/31 07:28:00;;;;;;;11.82;4.75;;;;;;;;;;4912817;29;20047;-91
2023/05/31 07:30:45;;;;;;;11.80;4.25;;;;;;;;;;4953862;28;20431;-92
2023/05/31 07:33:30;;;;;;;13.70;4.95;;;;;;;;;;4957020;29;20042;-93
2023/05/31 07:36:15;;;;;;;14.20;4.80;;;;;;;;;;4956612;29;20420;-92
2023/05/31 07:39:02;;;;;;;13.93;4.78;;;;;;;;;;4942351;29;20098;-95
2023/05/31 07:41:48;;;;;;;11.20;4.45;;;;;;;;;;4945902;29;20050;-93
2023/05/31 07:44:32;;;;;;;9.63;4.15;;;;;;;;;;4947150;28;20049;-92
2023/05/31 07:47:19;;;;;;;8.43;3.78;;;;;;;;;;4951318;29;20046;-91
2023/05/31 07:50:07;;;;;;;10.48;3.90;;;;;;;;;;4950215;29;20046;-91
2023/05/31 07:52:52;;;;;;;8.63;3.80;;;;;;;;;;4950779;28;20042;-90
2023/05/31 07:55:37;;;;;;;10.75;4.03;;;;;;;;;;4965044;28;20102;-92
2023/05/31 07:58:22;;;;;;;9.82;3.85;;;;;;;;;;4953393;28;20039;-92
2023/05/31 08:01:06;;;;;;;9.57;3.58;;;;;;;;;;4963336;29;20086;-92
2023/05/31 08:03:51;;;;;;;8.48;3.63;;;;;;;;;;4942622;29;20038;-93
2023/05/31 08:06:38;;;;;;;7.20;3.60;;;;;;;;;;4956685;29;20519;-92
2023/05/31 08:09:23;;;;;;;9.38;3.45;;;;;;;;;;4942311;29;20050;-91
2023/05/31 08:12:08;;;;;;;6.85;3.40;;;;;;;;;;4941394;29;20045;-92
2023/05/31 08:14:53;;;;;;;7.97;3.33;;;;;;;;;;4941622;29;20049;-92
2023/05/31 08:17:37;;;;;;;7.47;3.00;;;;;;;;;;4941563;28;20034;-91
2023/05/31 08:20:22;;;;;;;6.85;3.30;;;;;;;;;;4955423;28;20752;-92
2023/05/31 08:23:06;;;;;;;11.80;3.80;;;;;;;;;;4929495;29;20038;-89
2023/05/31 08:25:52;;;;;;;10.85;3.47;;;;;;;;;;4941341;29;20559;-89
2023/05/31 08:28:37;;;;;;;6.70;3.38;;;;;;;;;;4941895;29;20072;-93
2023/05/31 08:31:22;;;;;;;6.50;3.25;;;;;;;;;;4942071;28;20042;-92
2023/05/31 08:34:07;;;;;;;11.18;3.35;;;;;;;;;;4955418;29;20094;-93
2023/05/31 08:36:52;;;;;;;6.20;2.80;;;;;;;;;;4941796;29;20102;-91
2023/05/31 08:39:37;;;;;;;10.18;2.90;;;;;;;;;;4928104;29;20069;-91
2023/05/31 08:42:51;;;;;;;9.63;2.80;;;21.20;99.90;;;;;;4955156;28;20051;-92
2023/05/31 08:45:36;;;;;;;9.15;3.00;;;;;;;;;;4947318;29;20046;-91
2023/05/31 08:48:21;;;;;;;7.20;2.78;;;;;;;;;;4941190;29;20050;-91
2023/05/31 08:51:06;;;;;;;12.05;3.45;;;;;;;;;;4941236;29;20086;-92
2023/05/31 08:53:51;;;;;;;6.90;2.60;;;;;;;;;;4941399;29;20041;-91
2023/05/31 08:56:37;;;;;;;8.65;2.90;;;;;;;;;;4969278;28;20099;-92
2023/05/31 08:59:22;;;;;;;4.55;2.47;;;;;;;;;;4940655;29;20038;-91
2023/05/31 09:02:09;;;;;;;7.28;2.50;;;;;;;;;;4955340;29;20035;-93
2023/05/31 09:04:56;;;;;;;7.90;2.72;;;;;;;;;;4940912;29;20141;-92
2023/05/31 09:07:41;;;;;;;9.85;3.60;;;;;;;;;;4955420;29;20050;-91
2023/05/31 09:10:25;;;;;;;8.25;3.00;;;;;;;;;;4940797;29;20139;-92
2023/05/31 09:13:10;;;;;;;6.30;2.47;;;;;;;;;;4955222;29;20038;-93
2023/05/31 09:15:56;;;;;;;8.32;2.67;;;;;;;;;;4940730;28;20118;-92
2023/05/31 09:18:40;;;;;;;11.32;3.38;;;;;;;;;;4955096;29;20037;-91
2023/05/31 09:21:25;;;;;;;6.28;2.30;;;;;;;;;;4928865;29;20042;-92
2023/05/31 09:24:14;;;;;;;8.02;2.60;;;;;;;;;;4954747;28;20062;-92
2023/05/31 09:27:00;;;;;;;6.40;2.70;;;;;;;;;;4954917;29;20542;-91
2023/05/31 09:29:50;;;;;;;6.70;2.90;;;;;;;;;;4940529;29;20070;-92
2023/05/31 09:32:36;;;;;;;7.88;2.88;;;;;;;;;;4939839;28;20094;-92
2023/05/31 09:35:24;;;;;;;7.20;3.17;;;;;;;;;;4954827;29;20082;-93
2023/05/31 09:38:10;;;;;;;6.93;2.92;;;;;;;;;;4940949;29;20039;-91
2023/05/31 09:40:54;;;;;;;4.88;2.90;;;;;;;;;;4934571;29;20582;-91
2023/05/31 09:43:43;;;;;;;10.65;3.00;;;;;;;;;;4920710;29;20043;-92
2023/05/31 09:46:28;;;;;;;11.93;3.63;;;;;;;;;;4934657;29;20042;-92
2023/05/31 09:49:13;;;;;;;9.00;3.08;;;;;;;;;;4934927;29;20047;-94
2023/05/31 09:51:58;;;;;;;9.35;3.25;;;;;;;;;;4908805;29;20034;-92
2023/05/31 09:54:43;;;;;;;7.47;2.72;;;;;;;;;;4919789;29;20409;-91
2023/05/31 09:57:40;;;;;;;9.18;3.00;;;;;;;;;;4920572;29;20526;-91
2023/05/31 10:00:25;;;;;;;7.35;3.08;;;;;;;;;;4933744;29;20159;-91
2023/05/31 10:03:10;;;;;;;7.32;3.00;;;;;;;;;;4934244;29;20095;-91
2023/05/31 10:05:55;;;;;;;13.93;3.05;;;;;;;;;;4926831;29;20097;-91
2023/05/31 10:08:40;;;;;;;7.50;2.70;;;;;;;;;;4926064;29;20047;-93
2023/05/31 10:11:26;;;;;;;11.95;3.30;;;23.60;92.60;;;;;;4935035;29;20046;-93
2023/05/31 10:14:18;;;;;;;7.60;2.97;;;;;;;;;;4935022;29;20063;-92
2023/05/31 10:17:04;;;;;;;8.15;3.30;;;;;;;;;;4920564;29;20118;-94
2023/05/31 10:19:57;;;;;;;8.77;2.85;;;;;;;;;;4933951;29;20107;-91
2023/05/31 10:22:44;;;;;;;12.63;3.63;;;;;;;;;;4920397;29;20452;-91
2023/05/31 10:25:31;;;;;;;11.55;3.13;;;;;;;;;;4934677;29;20543;-91
2023/05/31 10:28:17;;;;;;;10.30;3.75;;;;;;;;;;4923968;29;20058;-90
2023/05/31 10:31:03;;;;;;;13.43;3.78;;;23.20;91.90;;;;;;4934755;29;20080;-91
2023/05/31 10:33:53;;;;;;;14.43;4.28;;;23.10;92.60;;;;;;4920195;29;20095;-91
2023/05/31 10:36:38;;;;;;;13.35;3.63;;;;;;;;;;4907755;29;20046;-90
2023/05/31 10:39:22;;;;;;;10.02;3.63;;;;;;;;;;4934574;29;20088;-91
2023/05/31 10:42:12;;;;;;;10.82;3.83;;;;;;;;;;4953615;29;20090;-92
2023/05/31 10:45:06;;;;;;;9.82;3.88;;;;;;;;;;4938891;28;20101;-93
2023/05/31 10:47:59;;;;;;;10.73;3.63;;;;;;;;;;4953426;28;20535;-91
2023/05/31 10:50:54;;;;;;;9.70;3.95;;;;;;;;;;4953642;28;20041;-92
2023/05/31 10:53:40;;;;;;;12.75;4.03;;;;;;;;;;4953676;29;20046;-92
2023/05/31 10:56:27;;;;;;;16.98;4.57;;;23.20;91.10;;;;;;4939021;29;20456;-91
2023/05/31 10:59:19;;;;;;;15.32;5.15;;;;;;;;;;4953743;29;20054;-90
2023/05/31 11:02:05;;;;;;;10.95;4.40;;;;;;;;;;4953783;29;20058;-90
2023/05/31 11:04:52;;;;;;;8.98;4.95;;;;;;;;;;4953715;29;20041;-91
2023/05/31 11:07:37;;;;;;;11.02;5.22;;;;;;;;;;4929756;29;20041;-90
2023/05/31 11:10:31;;;;;;;12.50;5.22;;;23.00;90.20;;;;;;4957145;29;20041;-93
2023/05/31 11:13:18;;;;;;;11.88;5.20;;;;;;;;;;4957429;28;20038;-90
2023/05/31 11:16:04;;;;;;;12.73;5.38;;;;;;;;;;4942895;29;20114;-91
2023/05/31 11:19:01;;;;;;;9.63;4.65;;;;;;;;;;4942730;29;20042;-92
2023/05/31 11:21:52;;;;;;;10.90;4.55;;;;;;;;;;4957101;28;20440;-91
2023/05/31 11:24:40;;;;;;;9.05;3.88;;;;;;;;;;4943366;28;20090;-92
2023/05/31 11:27:35;;;;;;;7.18;4.43;;;;;;;;;;4941911;29;20511;-93
2023/05/31 11:30:20;;;;;;;8.77;4.60;;;;;;;;;;4929021;29;20090;-92
2023/05/31 11:33:15;;;;;;;9.85;4.93;;;;;;;;;;4957183;29;20447;-91
2023/05/31 11:36:02;;;;;;;11.98;5.53;;;;;;;;;;4942532;29;20117;-90
2023/05/31 11:38:46;;;;;;;11.55;4.57;;;;;;;;;;4956716;29;20421;-90
2023/05/31 11:41:33;;;;;;;13.07;5.45;;;;;;;;;;4957500;29;20395;-90
2023/05/31 11:44:20;;;;;;;12.50;5.78;;;;;;;;;;4956472;28;20487;-91
2023/05/31 11:47:06;;;;;;;10.80;4.63;;;;;;;;;;4942276;29;20046;-91
2023/05/31 11:49:50;;;;;;;10.45;5.45;;;;;;;;;;4941684;28;20090;-91
2023/05/31 11:52:35;;;;;;;10.38;4.80;;;;;;;;;;4941874;29;20106;-91
2023/05/31 11:55:20;;;;;;;10.63;5.45;;;;;;;;;;4944372;28;20050;-92
2023/05/31 11:58:07;;;;;;;13.27;4.50;;;;;;;;;;4956339;28;20042;-91
2023/05/31 12:00:52;;;;;;;8.73;4.20;;;;;;;;;;4956347;28;20114;-91
2023/05/31 12:03:41;;;;;;;9.65;4.18;;;;;;;;;;4941569;29;20093;-92
2023/05/31 12:06:26;;;;;;;15.23;5.75;;;;;;;;;;4956419;28;20459;-90
2023/05/31 12:09:11;;;;;;;9.23;4.72;;;;;;;;;;4956218;29;20042;-91
2023/05/31 12:11:58;;;;;;;10.68;4.30;;;;;;;;;;4956234;29;20090;-91
2023/05/31 12:14:51;;;;;;;8.23;4.15;;;;;;;;;;4956022;28;20463;-91
2023/05/31 12:17:35;;;;;;;15.67;4.27;;;;;;;;;;4944778;28;20034;-90
2023/05/31 12:20:20;;;;;;;10.73;3.58;;;;;;;;;;4934828;29;20400;-89
2023/05/31 12:23:12;;;;;;;10.05;3.95;;;;;;;;;;4916825;29;20101;-91
2023/05/31 12:25:58;;;;;;;11.10;3.58;;;;;;;;;;4941152;29;20086;-90
2023/05/31 12:28:43;;;;;;;9.80;3.40;;;;;;;;;;4955379;29;20038;-90
2023/05/31 12:31:32;;;;;;;6.95;3.13;;;;;;;;;;4928815;29;20083;-91
2023/05/31 12:34:20;;;;;;;13.75;4.63;;;;;;;;;;4955674;28;20494;-93
2023/05/31 12:37:06;;;;;;;12.32;3.42;;;;;;;;;;4955716;28;20396;-91
2023/05/31 12:40:08;;;;;;;11.13;3.58;;;;;;;;;;4955156;28;20059;-91
2023/05/31 12:43:00;;;;;;;7.00;2.92;;;;;;;;;;4955444;29;20118;-91
2023/05/31 12:45:45;;;;;;;11.80;3.47;;;;;;;;;;4940558;29;20567;-91
2023/05/31 12:48:31;;;;;;;10.30;4.35;;;;;;;;;;4943140;29;20042;-90
2023/05/31 12:51:22;;;;;;;8.02;3.35;;;;;;;;;;4955600;28;20094;-91
2023/05/31 12:54:11;;;;;;;10.60;3.33;;;;;;;;;;4955638;29;20042;-90
2023/05/31 12:56:56;;;;;;;7.90;3.00;;;;;;;;;;4955574;29;20050;-93
2023/05/31 12:59:41;;;;;;;6.50;3.05;;;;;;;;;;4954784;29;20461;-90
2023/05/31 13:02:25;;;;;;;10.25;3.30;;;;;;;;;;4954996;28;20093;-90
2023/05/31 13:05:10;;;;;;;8.70;2.88;;;;;;;;;;4954821;28;20042;-90
2023/05/31 13:07:55;;;;;;;17.35;4.07;;;;;;;;;;4940344;29;20118;-91
2023/05/31 13:10:40;;;;;;;8.93;3.25;;;;;;;;;;4954727;28;20494;-91
2023/05/31 13:13:25;;;;;;;11.75;3.92;;;;;;;;;;4940620;29;20066;-90
2023/05/31 13:16:10;;;;;;;7.97;3.13;;;;;;;;;;4942104;29;20515;-91
2023/05/31 13:18:54;;;;;;;6.07;2.80;;;;;;;;;;4954317;28;20610;-91
2023/05/31 13:21:39;;;;;;;8.43;3.13;;;;;;;;;;4940091;29;20118;-92
2023/05/31 13:24:24;;;;;;;6.00;3.00;;;;;;;;;;4954773;29;20118;-91
2023/05/31 13:27:09;;;;;;;10.40;2.97;;;;;;;;;;4940458;29;20090;-92
2023/05/31 13:29:53;;;;;;;8.63;2.88;;;;;;;;;;4961675;28;20045;-91
2023/05/31 13:32:38;;;;;;;9.73;3.20;;;;;;;;;;4943712;28;20066;-92
2023/05/31 13:35:22;;;;;;;8.57;3.20;;;;;;;;;;4954662;28;20046;-91
2023/05/31 13:38:07;;;;;;;8.75;3.40;;;;;;;;;;4954438;29;20094;-91
2023/05/31 13:40:52;;;;;;;11.07;3.88;;;;;;;;;;4939735;29;20159;-91
2023/05/31 13:43:39;;;;;;;8.93;4.35;;;;;;;;;;4940513;29;20050;-91
2023/05/31 13:46:26;;;;;;;12.73;4.85;;;;;;;;;;4940528;28;20062;-91
2023/05/31 13:49:15;;;;;;;9.68;4.88;;;;;;;;;;4966572;28;20085;-92
2023/05/31 13:52:00;;;;;;;11.68;4.63;;;;;;;;;;4928030;29;20034;-92
2023/05/31 13:54:44;;;;;;;7.22;3.70;;;;;;;;;;4939668;28;20050;-92
2023/05/31 13:57:29;;;;;;;10.95;4.45;;;;;;;;;;4955272;29;20471;-91
2023/05/31 14:00:14;;;;;;;6.65;3.30;;;;;;;;;;4954195;28;20101;-90
2023/05/31 14:02:59;;;;;;;11.07;3.10;;;;;;;;;;4939996;29;20046;-91
2023/05/31 14:05:46;;;;;;;10.43;3.22;;;;;;;;;;4954848;28;20094;-92
2023/05/31 14:08:31;;;;;;;5.88;2.35;;;;;;;;;;4955205;29;20391;-91
2023/05/31 14:11:16;;;;;;;6.38;3.15;;;;;;;;;;4918748;29;20047;-93
2023/05/31 14:14:01;;;;;;;6.13;2.53;;;;;;;;;;4936869;28;20137;-92
2023/05/31 14:16:45;;;;;;;7.25;2.88;;;;;;;;;;4954437;28;20097;-92
2023/05/31 14:19:30;;;;;;;9.15;2.95;;;;;;;;;;4928490;29;20058;-91
2023/05/31 14:22:14;;;;;;;9.27;3.17;;;;;;;;;;4942826;29;20091;-91
2023/05/31 14:24:59;;;;;;;6.85;3.20;;;;;;;;;;4955454;29;20049;-92
2023/05/31 14:27:44;;;;;;;8.73;2.85;;;;;;;;;;4956032;29;20090;-93
2023/05/31 14:30:29;;;;;;;12.40;3.28;;;;;;;;;;4954908;28;20106;-92
2023/05/31 14:33:13;;;;;;;8.15;2.90;;;;;;;;;;4942240;29;20038;-92
2023/05/31 14:35:58;;;;;;;6.47;2.90;;;;;;;;;;4925715;28;20046;-92
2023/05/31 14:38:43;;;;;;;6.95;3.00;;;;;;;;;;4953860;29;20078;-92
2023/05/31 14:41:27;;;;;;;9.70;3.25;;;;;;;;;;4957067;28;20118;-93
2023/05/31 14:44:11;;;;;;;7.30;2.67;;;;;;;;;;4957051;29;20077;-92
2023/05/31 14:46:56;;;;;;;8.75;2.83;;;;;;;;;;4943164;29;20042;-91
2023/05/31 14:49:41;;;;;;;9.63;4.10;;;;;;;;;;4958224;29;20050;-92
2023/05/31 14:52:25;;;;;;;6.90;3.17;;;;;;;;;;4930290;29;20050;-92
2023/05/31 14:55:11;;;;;;;12.52;3.28;;;;;;;;;;4963014;28;20077;-92
2023/05/31 14:57:55;;;;;;;10.27;2.90;;;;;;;;;;4948375;28;20051;-92
2023/05/31 15:00:40;;;;;;;9.05;2.95;;;;;;;;;;4957343;29;20041;-92
2023/05/31 15:03:25;;;;;;;8.25;3.00;;;;;;;;;;4942767;29;20054;-92
2023/05/31 15:06:09;;;;;;;8.15;2.80;;;;;;;;;;4945718;28;20112;-92
2023/05/31 15:08:54;;;;;;;9.93;2.85;;;;;;;;;;4942141;28;20408;-91
2023/05/31 15:11:39;;;;;;;8.77;2.70;;;;;;;;;;4957232;28;20058;-92
2023/05/31 15:14:23;;;;;;;8.88;2.70;;;;;;;;;;4942252;29;20491;-92
2023/05/31 15:17:08;;;;;;;10.18;3.00;;;;;;;;;;4956346;28;20066;-92
2023/05/31 15:19:52;;;;;;;7.45;2.63;;;;;;;;;;4956632;29;20046;-91
2023/05/31 15:22:38;;;;;;;7.53;2.13;;;;;;;;;;4942724;29;20041;-92
2023/05/31 15:25:23;;;;;;;10.50;2.70;;;;;;;;;;4957020;29;20125;-92
2023/05/31 15:28:08;;;;;;;4.28;2.22;;;;;;;;;;4944755;29;20146;-92
2023/05/31 15:30:52;;;;;;;9.35;2.83;;;;;;;;;;4941941;28;20110;-91
2023/05/31 15:33:37;;;;;;;11.93;2.75;;;;;;;;;;4943001;29;20039;-93
2023/05/31 15:36:22;;;;;;;7.60;2.65;;;;;;;;;;4942533;29;20070;-92
2023/05/31 15:39:06;;;;;;;5.35;2.63;;;;;;;;;;4942819;29;20042;-93
2023/05/31 15:41:51;;;;;;;7.60;2.30;;;;;;;;;;4945205;29;20412;-94
2023/05/31 15:44:36;;;;;;;8.15;2.50;;;;;;;;;;4956911;28;20050;-93
2023/05/31 15:47:21;;;;;;;7.10;2.80;;;;;;;;;;4942439;29;20412;-94
2023/05/31 15:50:05;;;;;;;5.22;2.65;;;;;;;;;;4942045;29;20049;-91
2023/05/31 15:52:50;;;;;;;9.20;3.33;;;;;;;;;;4954101;28;20039;-91
2023/05/31 15:55:35;;;;;;;8.00;3.33;;;;;;;;;;4942214;29;20106;-95
2023/05/31 15:58:19;;;;;;;5.90;3.30;;;;;;;;;;4956483;29;20507;-93
2023/05/31 16:01:04;;;;;;;8.68;3.67;;;;;;;;;;4930889;29;20091;-93
2023/05/31 16:03:51;;;;;;;8.98;3.90;;;;;;;;;;4956613;29;20456;-92
2023/05/31 16:06:36;;;;;;;7.75;3.60;;;;;;;;;;4942061;29;20062;-92
2023/05/31 16:09:21;;;;;;;6.63;3.60;;;;;;;;;;4929757;29;20566;-91
2023/05/31 16:12:06;;;;;;;7.65;3.78;;;;;;;;;;4942278;29;20597;-93
2023/05/31 16:14:51;;;;;;;7.22;3.92;;;;;;;;;;4941708;28;20053;-92
2023/05/31 16:17:36;;;;;;;7.20;4.20;;;;;;;;;;4956406;28;20077;-90
2023/05/31 16:20:20;;;;;;;8.07;5.13;;;;;;;;;;4946526;29;20799;-92
2023/05/31 16:23:05;;;;;;;10.32;5.60;;;;;;;;;;4941148;29;20049;-93